createdAt,value
2022-12-01T00:00:10.067Z,43.40
2022-12-01T00:02:39.905Z,43.48
2022-12-01T00:05:09.338Z,43.68
2022-12-01T00:07:37.752Z,43.83
2022-12-01T00:10:25.574Z,43.86
2022-12-01T00:12:54.320Z,44.00
2022-12-01T00:15:23.440Z,43.66
2022-12-01T00:17:53.232Z,43.86
2022-12-01T00:20:21.677Z,43.76
2022-12-01T00:22:51.046Z,43.77
2022-12-01T00:25:21.671Z,43.95
2022-12-01T00:27:51.034Z,43.75
2022-12-01T00:30:21.953Z,43.76
2022-12-01T00:32:53.176Z,44.10
2022-12-01T00:35:21.745Z,44.31
2022-12-01T00:37:50.127Z,43.89
2022-12-01T00:40:18.653Z,43.98
2022-12-01T00:42:47.007Z,44.19
2022-12-01T00:45:15.521Z,44.28
2022-12-01T00:47:44.113Z,44.23
2022-12-01T00:50:14.154Z,44.39
2022-12-01T00:52:42.552Z,44.19
2022-12-01T00:55:11.182Z,44.31
2022-12-01T00:57:39.544Z,44.24
2022-12-01T01:00:10.093Z,44.41
2022-12-01T01:02:40.721Z,44.62
2022-12-01T01:05:10.373Z,44.43
2022-12-01T01:07:40.168Z,44.43
2022-12-01T01:10:09.827Z,44.62
2022-12-01T01:12:38.447Z,44.86
2022-12-01T01:15:08.865Z,44.70
2022-12-01T01:17:37.225Z,44.66
2022-12-01T01:20:07.232Z,44.73
2022-12-01T01:22:36.743Z,44.78
2022-12-01T01:25:08.040Z,44.86
2022-12-01T01:27:36.396Z,44.67
2022-12-01T01:30:06.691Z,44.96
2022-12-01T01:32:35.124Z,44.76
2022-12-01T01:35:03.509Z,44.78
2022-12-01T01:37:31.862Z,44.91
2022-12-01T01:40:00.298Z,44.83
2022-12-01T01:42:30.015Z,44.76
2022-12-01T01:45:00.266Z,45.02
2022-12-01T01:47:32.915Z,44.96
2022-12-01T01:50:08.463Z,44.78
2022-12-01T01:52:41.783Z,45.13
2022-12-01T01:55:10.909Z,45.01
2022-12-01T01:57:41.588Z,44.98
2022-12-01T02:00:13.364Z,44.96
2022-12-01T02:02:44.647Z,44.96
2022-12-01T02:05:19.517Z,44.94
2022-12-01T02:07:49.275Z,44.90
2022-12-01T02:10:22.709Z,44.93
2022-12-01T02:13:17.484Z,44.98
2022-12-01T02:15:57.440Z,45.27
2022-12-01T02:18:38.217Z,45.11
2022-12-01T02:21:31.315Z,45.29
2022-12-01T02:24:53.213Z,45.08
2022-12-01T02:27:37.874Z,45.29
2022-12-01T02:30:15.242Z,45.33
2022-12-01T02:33:08.076Z,45.09
2022-12-01T02:35:46.782Z,44.91
2022-12-01T02:38:26.215Z,45.09
2022-12-01T02:41:01.944Z,45.31
2022-12-01T02:43:37.463Z,45.23
2022-12-01T02:46:14.206Z,45.02
2022-12-01T02:48:49.603Z,44.90
2022-12-01T02:51:21.617Z,45.17
2022-12-01T02:53:50.736Z,45.00
2022-12-01T02:56:23.218Z,44.90
2022-12-01T02:58:51.899Z,45.18
2022-12-01T03:01:41.358Z,44.91
2022-12-01T03:04:51.838Z,45.17
2022-12-01T03:07:44.755Z,45.10
2022-12-01T03:10:24.100Z,45.04
2022-12-01T03:13:11.905Z,44.94
2022-12-01T03:15:50.903Z,44.63
2022-12-01T03:18:31.974Z,44.69
2022-12-01T03:21:08.054Z,45.08
2022-12-01T03:23:41.012Z,44.86
2022-12-01T03:26:16.327Z,44.92
2022-12-01T03:28:51.560Z,44.97
2022-12-01T03:31:26.458Z,45.00
2022-12-01T03:34:01.997Z,45.11
2022-12-01T03:36:36.801Z,44.97
2022-12-01T03:39:10.721Z,45.21
2022-12-01T03:41:45.072Z,44.94
2022-12-01T03:44:20.238Z,44.87
2022-12-01T03:46:53.090Z,45.17
2022-12-01T03:49:23.909Z,44.83
2022-12-01T03:52:08.009Z,45.06
2022-12-01T03:54:50.200Z,44.85
2022-12-01T03:57:25.543Z,44.99
2022-12-01T03:59:55.066Z,44.93
2022-12-01T04:02:25.531Z,44.77
2022-12-01T04:04:54.194Z,44.98
2022-12-01T04:07:24.425Z,44.85
2022-12-01T04:09:52.802Z,44.89
2022-12-01T04:12:33.216Z,44.84
2022-12-01T04:15:04.750Z,44.93
2022-12-01T04:17:33.628Z,44.86
2022-12-01T04:20:02.585Z,44.92
2022-12-01T04:22:32.295Z,44.87
2022-12-01T04:25:00.652Z,45.03
2022-12-01T04:27:29.017Z,44.98
2022-12-01T04:29:57.414Z,45.08
2022-12-01T04:32:25.841Z,45.06
2022-12-01T04:34:54.485Z,44.90
2022-12-01T04:37:22.935Z,45.01
2022-12-01T04:39:52.834Z,44.94
2022-12-01T04:42:21.201Z,45.02
2022-12-01T04:44:49.571Z,44.95
2022-12-01T04:47:18.023Z,44.97
2022-12-01T04:49:46.530Z,44.96
2022-12-01T04:52:14.989Z,44.97
2022-12-01T04:54:43.439Z,44.81
2022-12-01T04:57:13.158Z,44.84
2022-12-01T04:59:41.558Z,44.70
2022-12-01T05:02:09.990Z,44.87
2022-12-01T05:04:41.484Z,44.79
2022-12-01T05:07:10.345Z,44.84
2022-12-01T05:09:38.952Z,44.73
2022-12-01T05:12:08.025Z,44.61
2022-12-01T05:14:37.756Z,44.64
2022-12-01T05:17:06.112Z,44.74
2022-12-01T05:20:06.790Z,44.59
2022-12-01T05:23:03.722Z,44.64
2022-12-01T05:25:23.571Z,44.70
2022-12-01T05:27:51.882Z,44.57
2022-12-01T05:30:25.635Z,44.64
2022-12-01T05:32:56.827Z,44.56
2022-12-01T05:35:25.191Z,44.66
2022-12-01T05:37:53.548Z,44.54
2022-12-01T05:40:22.164Z,44.58
2022-12-01T05:42:50.508Z,44.44
2022-12-01T05:45:19.052Z,44.56
2022-12-01T05:47:48.823Z,44.33
2022-12-01T05:50:17.521Z,44.53
2022-12-01T05:52:45.886Z,44.46
2022-12-01T05:55:14.246Z,44.70
2022-12-01T05:57:42.634Z,44.66
2022-12-01T06:00:13.095Z,44.68
2022-12-01T06:02:41.886Z,44.72
2022-12-01T06:05:11.937Z,44.64
2022-12-01T06:07:40.744Z,44.49
2022-12-01T06:10:11.348Z,44.47
2022-12-01T06:12:40.594Z,44.57
2022-12-01T06:15:12.304Z,44.44
2022-12-01T06:17:41.091Z,44.61
2022-12-01T06:20:13.004Z,44.39
2022-12-01T06:22:41.363Z,44.58
2022-12-01T06:25:11.280Z,44.32
2022-12-01T06:27:39.640Z,44.53
2022-12-01T06:30:10.794Z,44.52
2022-12-01T06:32:39.356Z,44.47
2022-12-01T06:35:09.058Z,44.51
2022-12-01T06:37:38.784Z,44.54
2022-12-01T06:40:09.328Z,44.52
2022-12-01T06:42:37.702Z,44.44
2022-12-01T06:45:07.306Z,44.26
2022-12-01T06:47:35.909Z,44.21
2022-12-01T06:50:05.506Z,44.39
2022-12-01T06:52:33.915Z,44.48
2022-12-01T06:55:08.065Z,44.26
2022-12-01T06:57:36.672Z,44.29
2022-12-01T07:00:08.865Z,44.21
2022-12-01T07:02:39.101Z,44.16
2022-12-01T07:05:09.192Z,44.12
2022-12-01T07:07:38.368Z,44.21
2022-12-01T07:10:10.728Z,44.17
2022-12-01T07:12:39.640Z,44.12
2022-12-01T07:15:10.160Z,44.10
2022-12-01T07:17:38.567Z,43.97
2022-12-01T07:20:10.200Z,43.92
2022-12-01T07:22:38.828Z,44.12
2022-12-01T07:25:09.842Z,44.00
2022-12-01T07:27:38.237Z,44.04
2022-12-01T07:30:08.834Z,43.87
2022-12-01T07:32:37.219Z,43.78
2022-12-01T07:35:06.593Z,43.87
2022-12-01T07:37:34.983Z,43.74
2022-12-01T07:40:03.362Z,43.67
2022-12-01T07:42:33.163Z,43.56
2022-12-01T07:45:01.562Z,43.90
2022-12-01T07:47:29.945Z,43.94
2022-12-01T07:49:58.305Z,43.87
2022-12-01T07:52:26.938Z,43.64
2022-12-01T07:54:55.308Z,43.81
2022-12-01T07:57:23.766Z,43.87
2022-12-01T07:59:53.771Z,43.90
2022-12-01T08:02:22.236Z,43.45
2022-12-01T08:04:50.710Z,43.47
2022-12-01T08:07:19.138Z,43.90
2022-12-01T08:09:47.741Z,43.36
2022-12-01T08:12:16.435Z,43.69
2022-12-01T08:14:44.820Z,43.60
2022-12-01T08:17:14.649Z,43.80
2022-12-01T08:19:43.098Z,43.32
2022-12-01T08:22:11.517Z,43.52
2022-12-01T08:24:39.952Z,43.64
2022-12-01T08:27:08.400Z,43.60
2022-12-01T08:29:37.402Z,43.14
2022-12-01T08:32:06.319Z,43.20
2022-12-01T08:34:38.718Z,43.45
2022-12-01T08:37:07.122Z,43.16
2022-12-01T08:39:35.565Z,43.25
2022-12-01T08:42:03.985Z,42.79
2022-12-01T08:44:32.462Z,42.50
2022-12-01T08:47:00.981Z,42.40
2022-12-01T08:49:29.393Z,42.47
2022-12-01T08:51:59.252Z,42.38
2022-12-01T08:54:27.672Z,42.21
2022-12-01T08:56:56.085Z,41.97
2022-12-01T08:59:24.504Z,41.78
2022-12-01T09:01:57.501Z,41.96
2022-12-01T09:04:27.630Z,41.72
2022-12-01T09:06:58.527Z,41.85
2022-12-01T09:09:29.758Z,41.61
2022-12-01T09:11:58.896Z,41.13
2022-12-01T09:14:28.268Z,41.49
2022-12-01T09:16:56.776Z,41.23
2022-12-01T09:19:25.449Z,41.40
2022-12-01T09:21:53.986Z,41.83
2022-12-01T09:24:24.296Z,41.54
2022-12-01T09:26:56.787Z,41.92
2022-12-01T09:29:25.617Z,41.79
2022-12-01T09:31:57.486Z,41.85
2022-12-01T09:34:26.308Z,41.73
2022-12-01T09:36:57.836Z,41.65
2022-12-01T09:39:28.025Z,41.15
2022-12-01T09:42:08.419Z,41.41
2022-12-01T09:44:43.057Z,41.35
2022-12-01T09:47:19.740Z,41.29
2022-12-01T09:49:56.446Z,41.25
2022-12-01T09:52:28.084Z,41.51
2022-12-01T09:55:00.587Z,41.23
2022-12-01T09:57:34.924Z,41.26
2022-12-01T10:00:09.514Z,41.22
2022-12-01T10:02:43.092Z,41.16
2022-12-01T10:05:19.986Z,41.17
2022-12-01T10:07:53.986Z,40.82
2022-12-01T10:10:31.375Z,41.06
2022-12-01T10:13:00.597Z,40.84
2022-12-01T10:15:39.354Z,41.11
2022-12-01T10:18:30.877Z,41.18
2022-12-01T10:21:13.342Z,41.12
2022-12-01T10:24:25.540Z,41.36
2022-12-01T10:27:06.352Z,41.27
2022-12-01T10:29:47.767Z,40.73
2022-12-01T10:32:24.665Z,40.90
2022-12-01T10:34:53.223Z,40.54
2022-12-01T10:37:25.658Z,40.74
2022-12-01T10:39:56.452Z,40.56
2022-12-01T10:42:33.697Z,40.54
2022-12-01T10:45:05.145Z,40.48
2022-12-01T10:47:33.651Z,40.45
2022-12-01T10:50:04.406Z,40.55
2022-12-01T10:52:37.396Z,40.54
2022-12-01T10:55:27.789Z,40.37
2022-12-01T10:58:04.727Z,40.59
2022-12-01T11:00:59.174Z,40.21
2022-12-01T11:03:32.386Z,40.22
2022-12-01T11:06:04.415Z,40.25
2022-12-01T11:08:41.164Z,40.25
2022-12-01T11:11:28.941Z,40.16
2022-12-01T11:14:02.814Z,40.09
2022-12-01T11:16:44.444Z,40.13
2022-12-01T11:19:32.635Z,39.85
2022-12-01T11:22:03.391Z,39.75
2022-12-01T11:24:43.076Z,39.67
2022-12-01T11:27:18.549Z,39.62
2022-12-01T11:29:52.865Z,39.59
2022-12-01T11:32:25.038Z,39.41
2022-12-01T11:34:59.594Z,39.40
2022-12-01T11:37:33.536Z,39.33
2022-12-01T11:40:17.629Z,39.69
2022-12-01T11:42:51.806Z,39.51
2022-12-01T11:45:30.196Z,39.31
2022-12-01T11:48:06.674Z,39.18
2022-12-01T11:50:38.389Z,39.12
2022-12-01T11:53:29.125Z,38.88
2022-12-01T11:56:18.614Z,38.75
2022-12-01T11:58:50.920Z,38.58
2022-12-01T12:01:34.189Z,38.45
2022-12-01T12:04:22.106Z,38.50
2022-12-01T12:07:03.776Z,38.54
2022-12-01T12:09:57.764Z,38.47
2022-12-01T12:12:45.814Z,38.37
2022-12-01T12:15:31.082Z,38.44
2022-12-01T12:18:27.043Z,38.41
2022-12-01T12:21:09.851Z,38.41
2022-12-01T12:24:10.965Z,38.54
2022-12-01T12:26:48.631Z,38.28
2022-12-01T12:29:32.693Z,38.43
2022-12-01T12:32:24.812Z,38.38
2022-12-01T12:35:04.615Z,38.41
2022-12-01T12:37:46.303Z,38.48
2022-12-01T12:40:43.163Z,38.25
2022-12-01T12:43:27.498Z,38.00
2022-12-01T12:46:06.090Z,38.43
2022-12-01T12:49:20.456Z,38.41
2022-12-01T12:51:57.075Z,38.38
2022-12-01T12:54:32.674Z,38.51
2022-12-01T12:57:07.687Z,38.65
2022-12-01T12:59:46.615Z,38.73
2022-12-01T13:02:19.568Z,38.90
2022-12-01T13:04:58.930Z,38.63
2022-12-01T13:07:39.188Z,38.90
2022-12-01T13:10:22.875Z,39.03
2022-12-01T13:13:01.506Z,38.95
2022-12-01T13:15:31.957Z,39.19
2022-12-01T13:18:13.536Z,39.14
2022-12-01T13:20:42.879Z,39.23
2022-12-01T13:23:17.739Z,39.20
2022-12-01T13:25:50.172Z,39.51
2022-12-01T13:28:24.177Z,39.29
2022-12-01T13:31:05.103Z,39.45
2022-12-01T13:33:35.768Z,39.43
2022-12-01T13:39:05.573Z,39.30
2022-12-01T13:41:38.011Z,39.51
2022-12-01T13:44:20.729Z,39.59
2022-12-01T13:46:59.718Z,39.38
2022-12-01T13:49:42.292Z,39.43
2022-12-01T13:52:31.820Z,39.60
2022-12-01T13:55:30.722Z,39.83
2022-12-01T13:58:25.827Z,39.84
2022-12-01T14:00:54.406Z,40.15
2022-12-01T14:03:41.972Z,39.74
2022-12-01T14:06:27.406Z,40.10
2022-12-01T14:09:01.118Z,40.00
2022-12-01T14:11:33.333Z,40.13
2022-12-01T14:14:12.185Z,39.97
2022-12-01T14:16:50.977Z,40.37
2022-12-01T14:19:34.107Z,40.55
2022-12-01T14:22:03.633Z,40.46
2022-12-01T14:24:37.063Z,40.61
2022-12-01T14:27:08.356Z,40.60
2022-12-01T14:29:39.850Z,40.29
2022-12-01T14:32:26.243Z,40.89
2022-12-01T14:35:07.658Z,40.69
2022-12-01T14:37:50.029Z,40.63
2022-12-01T14:40:29.689Z,41.08
2022-12-01T14:43:18.422Z,40.75
2022-12-01T14:46:03.111Z,41.20
2022-12-01T14:48:39.307Z,41.14
2022-12-01T14:51:25.181Z,41.37
2022-12-01T14:53:55.603Z,41.49
2022-12-01T14:56:25.500Z,41.39
2022-12-01T14:58:59.336Z,41.60
2022-12-01T15:01:33.758Z,41.64
2022-12-01T15:04:06.130Z,41.17
2022-12-01T15:06:36.886Z,41.77
2022-12-01T15:12:03.656Z,41.86
2022-12-01T15:14:36.326Z,41.79
2022-12-01T15:17:06.968Z,41.70
2022-12-01T15:19:38.783Z,41.83
2022-12-01T15:22:14.204Z,41.90
2022-12-01T15:24:43.513Z,41.76
2022-12-01T15:27:27.483Z,42.13
2022-12-01T15:29:58.769Z,41.82
2022-12-01T15:32:28.296Z,42.20
2022-12-01T15:35:01.761Z,42.12
2022-12-01T15:37:42.337Z,42.03
2022-12-01T15:43:08.553Z,42.42
2022-12-01T15:45:57.164Z,42.32
2022-12-01T15:48:31.202Z,42.57
2022-12-01T15:51:12.002Z,42.54
2022-12-01T15:53:47.676Z,42.46
2022-12-01T15:56:16.471Z,42.46
2022-12-01T15:58:48.095Z,42.57
2022-12-01T16:01:20.851Z,42.61
2022-12-01T16:03:58.689Z,42.75
2022-12-01T16:06:32.741Z,42.67
2022-12-01T16:09:04.723Z,42.59
2022-12-01T16:11:33.499Z,42.44
2022-12-01T16:14:08.296Z,42.75
2022-12-01T16:16:43.672Z,42.75
2022-12-01T16:19:28.151Z,42.78
2022-12-01T16:22:13.556Z,42.71
2022-12-01T16:24:49.295Z,42.47
2022-12-01T16:27:23.705Z,42.58
2022-12-01T16:29:55.548Z,42.47
2022-12-01T16:32:34.270Z,42.64
2022-12-01T16:35:05.287Z,42.46
2022-12-01T16:37:34.956Z,42.86
2022-12-01T16:40:08.741Z,42.63
2022-12-01T16:42:37.403Z,42.70
2022-12-01T16:45:08.554Z,42.61
2022-12-01T16:47:38.575Z,43.01
2022-12-01T16:50:11.653Z,42.90
2022-12-01T16:52:45.505Z,43.19
2022-12-01T16:55:38.590Z,42.91
2022-12-01T16:58:07.549Z,43.16
2022-12-01T17:00:40.456Z,42.94
2022-12-01T17:03:15.997Z,43.07
2022-12-01T17:05:44.650Z,43.20
2022-12-01T17:08:13.723Z,43.12
2022-12-01T17:10:44.017Z,43.25
2022-12-01T17:13:13.178Z,43.34
2022-12-01T17:15:45.830Z,43.21
2022-12-01T17:18:17.627Z,43.55
2022-12-01T17:20:46.854Z,43.47
2022-12-01T17:23:15.693Z,43.67
2022-12-01T17:25:45.671Z,43.91
2022-12-01T17:28:14.490Z,43.77
2022-12-01T17:30:44.749Z,43.88
2022-12-01T17:33:19.192Z,43.76
2022-12-01T17:35:50.276Z,44.07
2022-12-01T17:38:20.974Z,44.01
2022-12-01T17:41:07.063Z,44.02
2022-12-01T17:43:37.479Z,44.15
2022-12-01T17:46:08.435Z,44.17
2022-12-01T17:48:41.866Z,44.24
2022-12-01T17:51:14.013Z,44.21
2022-12-01T17:53:44.626Z,44.42
2022-12-01T17:56:16.610Z,44.46
2022-12-01T17:58:46.291Z,44.73
2022-12-01T18:01:19.569Z,44.52
2022-12-01T18:03:52.185Z,44.53
2022-12-01T18:06:21.515Z,44.45
2022-12-01T18:08:51.731Z,44.41
2022-12-01T18:11:21.294Z,44.50
2022-12-01T18:13:52.421Z,44.27
2022-12-01T18:16:25.125Z,44.40
2022-12-01T18:18:59.483Z,44.28
2022-12-01T18:21:31.589Z,44.29
2022-12-01T18:24:05.167Z,44.57
2022-12-01T18:26:35.856Z,44.40
2022-12-01T18:29:08.395Z,44.26
2022-12-01T18:31:38.701Z,44.49
2022-12-01T18:34:11.257Z,44.37
2022-12-01T18:36:42.232Z,44.58
2022-12-01T18:39:13.707Z,44.58
2022-12-01T18:41:42.675Z,44.70
2022-12-01T18:44:12.849Z,44.63
2022-12-01T18:46:43.019Z,44.88
2022-12-01T18:49:14.884Z,44.69
2022-12-01T18:51:45.031Z,45.35
2022-12-01T18:54:18.820Z,44.78
2022-12-01T18:56:55.464Z,45.10
2022-12-01T18:59:28.132Z,45.08
2022-12-01T19:02:00.607Z,45.00
2022-12-01T19:04:36.782Z,45.07
2022-12-01T19:07:06.041Z,45.03
2022-12-01T19:09:37.548Z,45.01
2022-12-01T19:12:08.570Z,45.01
2022-12-01T19:14:40.556Z,45.05
2022-12-01T19:17:10.467Z,45.00
2022-12-01T19:19:40.856Z,45.05
2022-12-01T19:22:11.941Z,45.02
2022-12-01T19:24:48.622Z,44.87
2022-12-01T19:27:20.339Z,45.09
2022-12-01T19:29:51.115Z,45.08
2022-12-01T19:32:24.977Z,45.26
2022-12-01T19:34:56.660Z,45.15
2022-12-01T19:37:29.482Z,45.22
2022-12-01T19:39:59.874Z,45.51
2022-12-01T19:42:30.898Z,45.53
2022-12-01T19:45:04.489Z,45.42
2022-12-01T19:47:35.846Z,45.80
2022-12-01T19:50:12.212Z,45.67
2022-12-01T19:52:42.489Z,45.58
2022-12-01T19:55:12.835Z,45.60
2022-12-01T19:57:43.233Z,45.59
2022-12-01T20:00:16.604Z,45.73
2022-12-01T20:02:47.796Z,45.66
2022-12-01T20:05:20.661Z,45.78
2022-12-01T20:07:51.380Z,45.73
2022-12-01T20:10:23.216Z,45.67
2022-12-01T20:12:54.936Z,45.64
2022-12-01T20:15:25.627Z,45.78
2022-12-01T20:17:56.010Z,45.62
2022-12-01T20:20:30.761Z,45.61
2022-12-01T20:23:03.552Z,45.86
2022-12-01T20:25:34.347Z,45.75
2022-12-01T20:28:04.391Z,45.61
2022-12-01T20:30:35.201Z,45.76
2022-12-01T20:33:05.479Z,45.58
2022-12-01T20:35:35.755Z,45.58
2022-12-01T20:38:05.760Z,45.79
2022-12-01T20:40:36.442Z,45.77
2022-12-01T20:43:06.161Z,45.75
2022-12-01T20:45:35.812Z,45.79
2022-12-01T20:48:08.663Z,45.71
2022-12-01T20:50:41.430Z,45.90
2022-12-01T20:53:11.439Z,45.80
2022-12-01T20:55:42.235Z,45.89
2022-12-01T20:58:17.431Z,45.90
2022-12-01T21:00:47.435Z,45.92
2022-12-01T21:03:16.710Z,45.95
2022-12-01T21:05:47.485Z,46.10
2022-12-01T21:08:17.557Z,45.88
2022-12-01T21:10:47.898Z,46.02
2022-12-01T21:13:39.407Z,46.00
2022-12-01T21:16:14.429Z,46.14
2022-12-01T21:18:51.320Z,46.10
2022-12-01T21:21:27.679Z,46.00
2022-12-01T21:24:13.266Z,45.94
2022-12-01T21:26:46.825Z,46.31
2022-12-01T21:29:22.748Z,46.12
2022-12-01T21:31:53.895Z,46.01
2022-12-01T21:34:24.822Z,46.01
2022-12-01T21:36:59.057Z,45.85
2022-12-01T21:39:27.674Z,45.65
2022-12-01T21:42:00.858Z,45.60
2022-12-01T21:44:37.279Z,45.87
2022-12-01T21:47:17.850Z,45.91
2022-12-01T21:49:46.542Z,45.78
2022-12-01T21:52:21.226Z,45.50
2022-12-01T21:54:50.996Z,45.55
2022-12-01T21:57:42.819Z,45.67
2022-12-01T22:00:31.702Z,45.87
2022-12-01T22:03:30.237Z,45.50
2022-12-01T22:06:28.190Z,45.76
2022-12-01T22:08:54.884Z,45.74
2022-12-01T22:11:25.297Z,45.62
2022-12-01T22:14:00.425Z,45.51
2022-12-01T22:16:32.715Z,45.45
2022-12-01T22:19:09.668Z,45.43
2022-12-01T22:21:42.759Z,45.56
2022-12-01T22:24:27.540Z,45.77
2022-12-01T22:27:13.156Z,45.61
2022-12-01T22:29:45.128Z,45.51
2022-12-01T22:32:50.005Z,45.75
2022-12-01T22:35:35.499Z,45.64
2022-12-01T22:38:32.555Z,45.59
2022-12-01T22:41:06.897Z,45.68
2022-12-01T22:43:46.636Z,45.70
2022-12-01T22:46:33.998Z,45.57
2022-12-01T22:49:13.775Z,45.61
2022-12-01T22:51:47.353Z,45.60
2022-12-01T22:54:30.464Z,45.73
2022-12-01T22:57:11.919Z,45.70
2022-12-01T22:59:44.094Z,45.71
2022-12-01T23:02:21.286Z,45.65
2022-12-01T23:04:53.375Z,45.74
2022-12-01T23:07:34.654Z,45.64
2022-12-01T23:10:16.296Z,45.56
2022-12-01T23:12:48.204Z,45.53
2022-12-01T23:15:31.409Z,45.54
2022-12-01T23:18:09.576Z,45.32
2022-12-01T23:20:38.092Z,45.77
2022-12-01T23:23:13.899Z,45.27
2022-12-01T23:25:44.521Z,45.71
2022-12-01T23:28:15.232Z,45.44
2022-12-01T23:30:47.530Z,45.27
2022-12-01T23:33:22.438Z,45.88
2022-12-01T23:35:57.037Z,45.48
2022-12-01T23:38:30.412Z,45.61
2022-12-01T23:41:05.465Z,45.71
2022-12-01T23:43:40.110Z,45.84
2022-12-01T23:46:15.682Z,45.86
2022-12-01T23:48:50.216Z,45.63
2022-12-01T23:51:24.221Z,45.97
2022-12-01T23:53:54.489Z,45.63
2022-12-01T23:56:26.160Z,45.93
2022-12-01T23:58:57.890Z,45.89
